KMWO/MWO METAR and TAF weather

Enter ICAO airport designator
Station Type Date Time Source
KMWO METAR 2020/11/27 14:55 UTC NOAA

KMWO 271455Z AUTO 28005KT 10SM OVC030 09/03 A3016 RMK AO2 T00890033


Station Type Date Time Source
KMWO Decoded METAR 2020/11/27 14:55 UTC NOAA

Station name not available
Nov 27, 2020 - 09:55 AM EST / 2020.11.27 1455 UTC
Wind: from the W (280 degrees) at 6 MPH (5 KT):0
Visibility: 10 mile(s):0
Sky conditions: overcast
Temperature: 48.0 F (8.9 C)
Dew Point: 37.9 F (3.3 C)
Relative Humidity: 67%
Pressure (altimeter): 30.16 in. Hg (1021 hPa)
ob: KMWO 271455Z AUTO 28005KT 10SM OVC030 09/03 A3016 RMK AO2 T00890033
cycle: 15

Station Type Date Time Source
KMWO TAF UTC NOAA

Error!

Example: see airport list